createdAt,value
2018-05-03T00:00:54.930Z,68.35
2018-05-03T00:03:23.194Z,68.62
2018-05-03T00:05:51.476Z,68.49
2018-05-03T00:08:19.725Z,68.65
2018-05-03T00:10:48.753Z,68.42
2018-05-03T00:13:17.330Z,68.24
2018-05-03T00:15:45.614Z,68.20
2018-05-03T00:18:14.129Z,69.08
2018-05-03T00:20:42.340Z,68.85
2018-05-03T00:23:10.617Z,69.14
2018-05-03T00:25:39.001Z,69.76
2018-05-03T00:28:07.269Z,68.96
2018-05-03T00:30:35.570Z,68.79
2018-05-03T00:33:03.876Z,67.92
2018-05-03T00:35:32.125Z,67.79
2018-05-03T00:38:00.400Z,67.45
2018-05-03T00:40:28.691Z,67.09
2018-05-03T00:42:56.942Z,67.53
2018-05-03T00:45:25.217Z,67.28
2018-05-03T00:47:53.486Z,67.71
2018-05-03T00:50:21.781Z,67.52
2018-05-03T00:52:50.050Z,66.72
2018-05-03T00:55:18.807Z,66.75
2018-05-03T00:57:47.080Z,66.57
2018-05-03T01:00:15.375Z,66.41
2018-05-03T01:02:43.644Z,66.52
2018-05-03T01:05:11.946Z,67.47
2018-05-03T01:07:40.199Z,67.63
2018-05-03T01:10:08.475Z,67.28
2018-05-03T01:12:36.740Z,67.47
2018-05-03T01:15:05.034Z,68.01
2018-05-03T01:17:33.306Z,68.55
2018-05-03T01:20:01.575Z,68.61
2018-05-03T01:22:29.857Z,68.88
2018-05-03T01:24:58.221Z,68.20
2018-05-03T01:27:26.506Z,68.23
2018-05-03T01:29:54.778Z,67.96
2018-05-03T01:32:23.061Z,67.38
2018-05-03T01:38:08.446Z,67.27
2018-05-03T01:40:36.717Z,68.28
2018-05-03T01:43:04.996Z,68.24
2018-05-03T01:45:33.265Z,69.24
2018-05-03T01:48:01.512Z,69.51
2018-05-03T01:50:29.794Z,69.16
2018-05-03T01:52:58.081Z,69.30
2018-05-03T01:55:26.336Z,69.61
2018-05-03T01:57:55.385Z,69.66
2018-05-03T02:00:23.805Z,70.17
2018-05-03T02:02:52.847Z,69.07
2018-05-03T02:05:21.115Z,68.87
2018-05-03T02:07:49.383Z,69.51
2018-05-03T02:10:17.649Z,70.66
2018-05-03T02:12:46.121Z,69.79
2018-05-03T02:15:14.426Z,70.38
2018-05-03T02:17:42.714Z,69.37
2018-05-03T02:20:10.977Z,69.19
2018-05-03T02:22:39.243Z,69.26
2018-05-03T02:25:07.497Z,68.95
2018-05-03T02:27:35.765Z,69.14
2018-05-03T02:30:04.046Z,69.62
2018-05-03T02:32:32.344Z,69.73
2018-05-03T02:35:00.623Z,70.77
2018-05-03T02:37:28.871Z,70.58
2018-05-03T02:39:57.138Z,70.74
2018-05-03T02:42:25.453Z,69.99
2018-05-03T02:44:53.786Z,69.54
2018-05-03T02:47:22.066Z,69.08
2018-05-03T02:49:50.343Z,69.25
2018-05-03T02:52:18.613Z,69.43
2018-05-03T02:54:46.897Z,70.07
2018-05-03T02:57:32.902Z,71.75
2018-05-03T03:00:24.858Z,72.62
2018-05-03T03:03:16.247Z,71.69
2018-05-03T03:06:08.108Z,71.95
2018-05-03T03:12:32.358Z,72.36
2018-05-03T03:15:23.678Z,72.70
2018-05-03T03:18:10.923Z,71.74
2018-05-03T03:21:04.370Z,72.02
2018-05-03T03:23:56.130Z,71.59
2018-05-03T03:33:34.573Z,72.18
2018-05-03T03:36:20.495Z,72.51
2018-05-03T03:39:06.348Z,73.17
2018-05-03T03:41:40.227Z,72.63
2018-05-03T03:44:26.416Z,72.32
2018-05-03T03:46:54.685Z,72.47
2018-05-03T03:49:23.810Z,72.45
2018-05-03T03:51:52.063Z,72.52
2018-05-03T03:54:20.356Z,73.33
2018-05-03T03:56:48.607Z,73.02
2018-05-03T03:59:17.641Z,72.01
2018-05-03T04:01:45.882Z,72.46
2018-05-03T04:04:14.162Z,72.90
2018-05-03T04:06:42.442Z,72.82
2018-05-03T04:09:10.731Z,72.58
2018-05-03T04:11:39.004Z,73.99
2018-05-03T04:14:07.256Z,73.26
2018-05-03T04:16:35.880Z,74.08
2018-05-03T04:19:21.929Z,74.32
2018-05-03T04:25:19.983Z,74.46
2018-05-03T04:27:48.340Z,74.15
2018-05-03T04:30:16.705Z,74.07
2018-05-03T04:32:44.961Z,74.31
2018-05-03T04:35:13.225Z,74.78
2018-05-03T04:37:41.491Z,74.93
2018-05-03T04:40:10.505Z,74.34
2018-05-03T04:42:38.914Z,73.64
2018-05-03T04:45:07.269Z,73.37
2018-05-03T04:47:35.541Z,73.42
2018-05-03T04:50:03.841Z,72.56
2018-05-03T04:52:32.100Z,72.38
2018-05-03T04:55:00.391Z,71.99
2018-05-03T04:57:29.128Z,73.21
2018-05-03T04:59:58.171Z,72.31
2018-05-03T05:02:26.430Z,71.31
2018-05-03T05:04:54.705Z,71.87
2018-05-03T05:07:22.978Z,71.55
2018-05-03T05:09:51.240Z,71.91
2018-05-03T05:12:19.513Z,71.94
2018-05-03T05:14:47.784Z,71.32
2018-05-03T05:17:16.029Z,71.45
2018-05-03T05:19:45.071Z,73.57
2018-05-03T05:22:13.487Z,72.51
2018-05-03T05:24:41.967Z,72.50
2018-05-03T05:27:10.218Z,72.18
2018-05-03T05:29:38.572Z,72.58
2018-05-03T05:32:06.871Z,72.56
2018-05-03T05:34:35.223Z,72.62
2018-05-03T05:37:03.540Z,74.06
2018-05-03T05:39:31.796Z,74.88
2018-05-03T05:42:00.063Z,74.93
2018-05-03T05:44:28.336Z,75.08
2018-05-03T05:46:56.621Z,75.31
2018-05-03T05:49:24.904Z,75.42
2018-05-03T05:51:53.189Z,74.12
2018-05-03T05:54:21.435Z,72.62
2018-05-03T05:56:49.681Z,71.85
2018-05-03T05:59:17.971Z,72.58
2018-05-03T06:01:46.244Z,72.74
2018-05-03T06:04:14.570Z,73.16
2018-05-03T06:06:42.909Z,72.45
2018-05-03T06:09:11.189Z,73.77
2018-05-03T06:11:39.511Z,72.25
2018-05-03T06:14:07.799Z,71.67
2018-05-03T06:16:36.850Z,69.67
2018-05-03T06:19:05.130Z,69.92
2018-05-03T06:21:33.404Z,70.50
2018-05-03T06:24:01.655Z,72.01
2018-05-03T06:26:30.140Z,73.81
2018-05-03T06:28:58.391Z,73.85
2018-05-03T06:31:26.768Z,73.99
2018-05-03T06:33:55.064Z,74.19
2018-05-03T06:36:23.341Z,75.53
2018-05-03T06:38:51.652Z,73.19
2018-05-03T06:41:19.921Z,70.91
2018-05-03T06:43:48.364Z,71.68
2018-05-03T06:46:16.673Z,72.84
2018-05-03T06:48:45.136Z,71.80
2018-05-03T06:51:13.381Z,69.19
2018-05-03T06:53:41.685Z,68.72
2018-05-03T06:56:09.952Z,67.44
2018-05-03T06:58:38.491Z,67.01
2018-05-03T07:01:06.671Z,66.51
2018-05-03T07:03:34.961Z,66.63
2018-05-03T07:06:03.218Z,66.86
2018-05-03T07:08:32.262Z,66.64
2018-05-03T07:11:00.539Z,65.64
2018-05-03T07:13:28.816Z,63.83
2018-05-03T07:15:57.069Z,61.56
2018-05-03T07:18:25.358Z,62.07
2018-05-03T07:20:53.732Z,61.83
2018-05-03T07:23:22.051Z,61.97
2018-05-03T07:25:50.441Z,62.18
2018-05-03T07:28:19.493Z,61.63
2018-05-03T07:30:47.768Z,61.62
2018-05-03T07:33:16.131Z,61.10
2018-05-03T07:35:44.415Z,61.67
2018-05-03T07:38:12.673Z,61.92
2018-05-03T07:40:41.050Z,61.27
2018-05-03T07:43:09.261Z,61.28
2018-05-03T07:45:37.564Z,61.41
2018-05-03T07:48:06.584Z,59.62
2018-05-03T07:50:34.871Z,61.37
2018-05-03T07:53:03.135Z,61.43
2018-05-03T07:55:31.397Z,61.73
2018-05-03T07:57:59.684Z,61.46
2018-05-03T08:00:28.119Z,61.18
2018-05-03T08:02:56.384Z,61.44
2018-05-03T08:05:24.683Z,60.95
2018-05-03T08:07:53.980Z,60.88
2018-05-03T08:10:23.073Z,60.84
2018-05-03T08:12:52.128Z,61.07
2018-05-03T08:15:20.396Z,60.85
2018-05-03T08:17:48.718Z,61.86
2018-05-03T08:20:17.793Z,61.62
2018-05-03T08:22:46.078Z,61.58
2018-05-03T08:27:48.821Z,61.03
2018-05-03T08:30:17.138Z,60.18
2018-05-03T08:32:45.396Z,60.19
2018-05-03T08:35:13.710Z,59.94
2018-05-03T08:37:42.001Z,60.66
2018-05-03T08:40:10.313Z,59.79
2018-05-03T08:42:38.607Z,58.55
2018-05-03T08:45:06.907Z,58.83
2018-05-03T08:47:35.949Z,57.10
2018-05-03T08:50:04.262Z,57.28
2018-05-03T08:52:32.534Z,56.50
2018-05-03T08:55:01.723Z,56.52
2018-05-03T08:57:30.355Z,56.41
2018-05-03T08:59:58.635Z,55.65
2018-05-03T09:02:26.924Z,55.67
2018-05-03T09:04:55.205Z,54.83
2018-05-03T09:07:23.498Z,55.15
2018-05-03T09:09:51.788Z,54.86
2018-05-03T09:12:20.076Z,54.58
2018-05-03T09:14:49.420Z,53.50
2018-05-03T09:17:17.724Z,52.27
2018-05-03T09:19:46.060Z,50.58
2018-05-03T09:22:14.381Z,51.84
2018-05-03T09:24:42.704Z,50.08
2018-05-03T09:27:10.974Z,49.36
2018-05-03T09:29:40.006Z,49.72
2018-05-03T09:32:08.309Z,48.98
2018-05-03T09:34:36.614Z,48.83
2018-05-03T09:37:04.930Z,48.34
2018-05-03T09:39:33.197Z,49.06
2018-05-03T09:42:01.734Z,47.99
2018-05-03T09:44:30.111Z,47.55
2018-05-03T09:46:59.247Z,47.93
2018-05-03T09:49:27.571Z,47.03
2018-05-03T09:51:55.807Z,47.19
2018-05-03T09:54:24.078Z,47.47
2018-05-03T09:56:52.360Z,47.64
2018-05-03T09:59:20.658Z,47.11
2018-05-03T10:01:48.918Z,47.41
2018-05-03T10:04:17.203Z,47.57
2018-05-03T10:06:45.558Z,47.42
2018-05-03T10:09:13.834Z,48.25
2018-05-03T10:11:42.125Z,49.34
2018-05-03T10:14:10.515Z,50.28
2018-05-03T10:16:38.861Z,50.32
2018-05-03T10:19:07.648Z,49.53
2018-05-03T10:21:36.084Z,48.41
2018-05-03T10:24:05.498Z,48.40
2018-05-03T10:26:33.778Z,48.63
2018-05-03T10:29:02.061Z,46.55
2018-05-03T10:31:30.327Z,45.71
2018-05-03T10:33:58.606Z,45.47
2018-05-03T10:36:26.886Z,44.54
2018-05-03T10:38:55.183Z,46.41
2018-05-03T10:41:23.485Z,45.97
2018-05-03T10:43:51.754Z,45.36
2018-05-03T10:46:20.029Z,44.14
2018-05-03T10:48:48.368Z,43.08
2018-05-03T10:51:16.595Z,42.14
2018-05-03T10:53:44.893Z,42.39
2018-05-03T10:56:13.924Z,39.92
2018-05-03T10:58:42.207Z,40.43
2018-05-03T11:01:10.641Z,42.12
2018-05-03T11:03:39.750Z,40.55
2018-05-03T11:06:08.168Z,41.42
2018-05-03T11:08:36.498Z,40.63
2018-05-03T11:11:04.949Z,41.69
2018-05-03T11:13:33.916Z,41.74
2018-05-03T11:16:02.261Z,40.16
2018-05-03T11:18:30.518Z,38.00
2018-05-03T11:20:59.572Z,37.03
2018-05-03T11:23:27.829Z,36.03
2018-05-03T11:25:56.148Z,35.36
2018-05-03T11:28:24.374Z,35.26
2018-05-03T11:30:52.763Z,34.38
2018-05-03T11:33:21.030Z,35.79
2018-05-03T11:35:49.363Z,34.49
2018-05-03T11:38:17.682Z,34.73
2018-05-03T11:40:45.977Z,35.79
2018-05-03T11:43:14.539Z,34.95
2018-05-03T11:45:42.907Z,34.56
2018-05-03T11:48:11.235Z,35.32
2018-05-03T11:50:39.797Z,34.06
2018-05-03T11:53:08.283Z,33.37
2018-05-03T11:55:36.592Z,33.42
2018-05-03T11:58:05.752Z,33.07
2018-05-03T12:00:34.021Z,32.18
2018-05-03T12:03:02.298Z,33.30
2018-05-03T12:05:30.561Z,32.83
2018-05-03T12:07:58.836Z,32.20
2018-05-03T12:10:27.128Z,31.51
2018-05-03T12:12:55.428Z,31.61
2018-05-03T12:15:23.725Z,31.95
2018-05-03T12:17:52.029Z,32.71
2018-05-03T12:20:20.289Z,31.50
2018-05-03T12:22:48.550Z,32.70
2018-05-03T12:25:17.286Z,31.30
2018-05-03T12:27:45.564Z,31.82
2018-05-03T12:30:15.497Z,32.47
2018-05-03T12:32:44.535Z,31.69
2018-05-03T12:35:12.839Z,32.46
2018-05-03T12:37:41.141Z,33.11
2018-05-03T12:40:09.433Z,32.81
2018-05-03T12:42:38.491Z,35.34
2018-05-03T12:45:06.824Z,35.00
2018-05-03T12:47:35.069Z,35.16
2018-05-03T12:50:09.108Z,36.19
2018-05-03T12:52:37.394Z,36.04
2018-05-03T12:55:05.681Z,36.84
2018-05-03T12:57:33.945Z,37.52
2018-05-03T13:00:02.208Z,38.46
2018-05-03T13:02:30.484Z,38.21
2018-05-03T13:04:58.745Z,37.90
2018-05-03T13:07:27.025Z,39.14
2018-05-03T13:09:55.346Z,41.23
2018-05-03T13:12:23.706Z,40.56
2018-05-03T13:14:51.998Z,40.26
2018-05-03T13:17:20.407Z,40.51
2018-05-03T13:19:49.460Z,40.79
2018-05-03T13:22:17.773Z,42.07
2018-05-03T13:24:46.800Z,41.14
2018-05-03T13:27:15.112Z,41.84
2018-05-03T13:29:43.374Z,40.86
2018-05-03T13:32:11.945Z,41.87
2018-05-03T13:34:40.244Z,42.79
2018-05-03T13:37:08.500Z,43.14
2018-05-03T13:39:36.781Z,43.51
2018-05-03T13:42:05.082Z,42.43
2018-05-03T13:44:33.420Z,41.76
2018-05-03T13:47:01.679Z,42.01
2018-05-03T13:49:29.934Z,41.04
2018-05-03T13:51:59.001Z,41.72
2018-05-03T13:54:28.126Z,41.04
2018-05-03T13:56:57.189Z,42.14
2018-05-03T13:59:26.530Z,42.09
2018-05-03T14:01:54.813Z,42.62
2018-05-03T14:04:23.221Z,42.54
2018-05-03T14:06:51.497Z,42.38
2018-05-03T14:09:19.819Z,42.24
2018-05-03T14:11:48.118Z,42.31
2018-05-03T14:14:16.482Z,43.26
2018-05-03T14:16:44.765Z,43.93
2018-05-03T14:19:13.086Z,43.68
2018-05-03T14:21:41.371Z,44.78
2018-05-03T14:24:09.816Z,44.05
2018-05-03T14:26:38.064Z,43.95
2018-05-03T14:29:06.357Z,43.54
2018-05-03T14:31:34.644Z,43.60
2018-05-03T14:34:03.009Z,44.10
2018-05-03T14:36:31.272Z,47.11
2018-05-03T14:38:59.530Z,45.57
2018-05-03T14:41:28.762Z,45.25
2018-05-03T14:43:57.131Z,45.04
2018-05-03T14:46:25.401Z,44.04
2018-05-03T14:48:53.684Z,43.09
2018-05-03T14:51:21.973Z,46.15
2018-05-03T14:53:50.259Z,43.80
2018-05-03T14:56:18.542Z,43.62
2018-05-03T14:58:46.828Z,43.09
2018-05-03T15:01:15.255Z,44.00
2018-05-03T15:03:43.556Z,43.82
2018-05-03T15:06:11.831Z,43.16
2018-05-03T15:08:40.135Z,42.47
2018-05-03T15:11:08.595Z,42.49
2018-05-03T15:13:36.891Z,41.33
2018-05-03T15:16:05.171Z,41.46
2018-05-03T15:18:33.427Z,40.85
2018-05-03T15:21:01.686Z,41.25
2018-05-03T15:23:30.791Z,40.50
2018-05-03T15:25:59.049Z,40.43
2018-05-03T15:28:27.325Z,40.06
2018-05-03T15:30:55.605Z,40.02
2018-05-03T15:33:23.962Z,41.35
2018-05-03T15:35:52.250Z,41.98
2018-05-03T15:38:20.589Z,41.67
2018-05-03T15:40:49.621Z,43.05
2018-05-03T15:43:17.905Z,41.70
2018-05-03T15:45:46.204Z,42.28
2018-05-03T15:48:14.507Z,43.07
2018-05-03T15:50:43.527Z,42.44
2018-05-03T15:53:11.778Z,42.84
2018-05-03T15:55:40.116Z,43.23
2018-05-03T15:58:08.342Z,42.82
2018-05-03T16:00:36.642Z,43.46
2018-05-03T16:03:05.021Z,44.02
2018-05-03T16:05:33.398Z,42.96
2018-05-03T16:08:02.590Z,41.46
2018-05-03T16:10:30.938Z,41.67
2018-05-03T16:12:59.356Z,42.02
2018-05-03T16:15:27.639Z,41.96
2018-05-03T16:17:55.935Z,43.07
2018-05-03T16:20:24.223Z,43.18
2018-05-03T16:22:53.347Z,42.46
2018-05-03T16:25:21.635Z,41.35
2018-05-03T16:27:49.914Z,42.10
2018-05-03T16:30:18.291Z,42.16
2018-05-03T16:32:49.727Z,40.94
2018-05-03T16:35:18.010Z,41.58
2018-05-03T16:37:46.293Z,42.71
2018-05-03T16:40:14.572Z,42.18
2018-05-03T16:42:42.854Z,41.72
2018-05-03T16:45:11.140Z,42.48
2018-05-03T16:47:39.731Z,43.04
2018-05-03T16:50:07.989Z,43.99
2018-05-03T16:52:36.278Z,44.09
2018-05-03T16:55:04.543Z,44.73
2018-05-03T16:57:32.816Z,45.58
2018-05-03T17:00:01.087Z,45.40
2018-05-03T17:02:29.364Z,45.36
2018-05-03T17:04:57.662Z,45.59
2018-05-03T17:07:25.921Z,45.94
2018-05-03T17:09:54.585Z,45.80
2018-05-03T17:12:23.086Z,45.27
2018-05-03T17:14:51.648Z,45.44
2018-05-03T17:17:20.079Z,45.47
2018-05-03T17:19:48.873Z,45.56
2018-05-03T17:22:17.977Z,46.61
2018-05-03T17:24:47.076Z,46.42
2018-05-03T17:27:15.566Z,47.11
2018-05-03T17:29:43.975Z,46.68
2018-05-03T17:32:12.637Z,46.92
2018-05-03T17:34:41.005Z,47.23
2018-05-03T17:37:09.493Z,47.08
2018-05-03T17:39:37.934Z,47.03
2018-05-03T17:42:07.300Z,47.00
2018-05-03T17:44:35.881Z,47.46
2018-05-03T17:47:04.252Z,47.01
2018-05-03T17:49:33.170Z,47.27
2018-05-03T17:52:02.308Z,47.77
2018-05-03T17:54:30.835Z,48.59
2018-05-03T17:56:59.461Z,47.65
2018-05-03T17:59:28.174Z,47.70
2018-05-03T18:01:56.658Z,48.17
2018-05-03T18:04:25.244Z,47.58
2018-05-03T18:06:53.748Z,48.36
2018-05-03T18:09:22.633Z,48.39
2018-05-03T18:11:51.236Z,47.92
2018-05-03T18:14:20.025Z,48.56
2018-05-03T18:16:48.391Z,48.53
2018-05-03T18:19:17.004Z,48.60
2018-05-03T18:21:45.441Z,48.70
2018-05-03T18:24:14.231Z,49.38
2018-05-03T18:26:42.738Z,49.57
2018-05-03T18:29:12.204Z,49.86
2018-05-03T18:31:40.824Z,50.11
2018-05-03T18:34:12.665Z,50.20
2018-05-03T18:36:41.383Z,50.54
2018-05-03T18:39:10.740Z,50.30
2018-05-03T18:41:39.444Z,51.08
2018-05-03T18:44:08.041Z,50.98
2018-05-03T18:46:37.194Z,51.14
2018-05-03T18:49:06.051Z,50.63
2018-05-03T18:51:34.716Z,51.03
2018-05-03T18:54:03.291Z,51.06
2018-05-03T18:56:32.138Z,51.29
2018-05-03T18:59:00.909Z,50.94
2018-05-03T19:01:29.720Z,51.50
2018-05-03T19:03:58.190Z,51.56
2018-05-03T19:06:26.897Z,51.65
2018-05-03T19:08:55.446Z,52.43
2018-05-03T19:11:24.087Z,52.08
2018-05-03T19:13:53.845Z,51.62
2018-05-03T19:16:22.328Z,51.58
2018-05-03T19:18:50.745Z,52.02
2018-05-03T19:21:19.377Z,52.27
2018-05-03T19:23:47.894Z,52.91
2018-05-03T19:26:16.595Z,52.16
2018-05-03T19:28:45.007Z,53.11
2018-05-03T19:31:13.510Z,52.49
2018-05-03T19:33:41.947Z,52.40
2018-05-03T19:36:11.121Z,52.48
2018-05-03T19:38:39.529Z,52.38
2018-05-03T19:41:07.916Z,52.78
2018-05-03T19:43:36.424Z,52.41
2018-05-03T19:46:05.592Z,52.39
2018-05-03T19:48:34.064Z,52.49
2018-05-03T19:51:03.056Z,52.17
2018-05-03T19:53:31.624Z,52.20
2018-05-03T19:56:00.627Z,52.05
2018-05-03T19:58:29.096Z,51.76
2018-05-03T20:00:58.350Z,51.93
2018-05-03T20:03:27.298Z,52.10
2018-05-03T20:05:55.805Z,52.44
2018-05-03T20:08:24.176Z,51.99
2018-05-03T20:10:52.365Z,52.35
2018-05-03T20:13:20.668Z,52.16
2018-05-03T20:15:49.044Z,52.27
2018-05-03T20:18:17.355Z,52.05
2018-05-03T20:20:46.377Z,52.26
2018-05-03T20:23:14.689Z,51.87
2018-05-03T20:25:42.950Z,51.66
2018-05-03T20:28:11.241Z,51.80
2018-05-03T20:30:39.514Z,51.92
2018-05-03T20:33:07.812Z,51.81
2018-05-03T20:35:36.852Z,51.85
2018-05-03T20:38:05.141Z,52.03
2018-05-03T20:40:33.401Z,51.48
2018-05-03T20:43:01.680Z,51.41
2018-05-03T20:45:29.977Z,51.56
2018-05-03T20:47:58.687Z,51.92
2018-05-03T20:50:27.749Z,51.52
2018-05-03T20:52:56.055Z,51.91
2018-05-03T20:55:25.228Z,51.80
2018-05-03T20:57:53.501Z,52.06
2018-05-03T21:00:21.787Z,52.09
2018-05-03T21:02:50.057Z,52.13
2018-05-03T21:05:18.446Z,52.26
2018-05-03T21:07:46.720Z,52.15
2018-05-03T21:10:15.784Z,52.18
2018-05-03T21:12:44.181Z,52.37
2018-05-03T21:15:12.375Z,52.23
2018-05-03T21:17:41.423Z,52.29
2018-05-03T21:20:09.791Z,52.46
2018-05-03T21:22:38.058Z,52.31
2018-05-03T21:25:06.351Z,52.64
2018-05-03T21:27:34.681Z,52.50
2018-05-03T21:30:04.056Z,52.70
2018-05-03T21:32:32.321Z,52.86
2018-05-03T21:35:00.624Z,52.59
2018-05-03T21:37:28.906Z,53.00
2018-05-03T21:39:57.969Z,52.82
2018-05-03T21:42:26.249Z,52.91
2018-05-03T21:44:54.511Z,53.23
2018-05-03T21:47:22.832Z,53.45
2018-05-03T21:49:51.869Z,53.52
2018-05-03T21:52:20.180Z,54.23
2018-05-03T21:54:48.468Z,54.22
2018-05-03T21:57:17.607Z,54.07
2018-05-03T21:59:45.879Z,54.49
2018-05-03T22:02:14.187Z,54.67
2018-05-03T22:04:42.441Z,55.48
2018-05-03T22:07:10.719Z,55.02
2018-05-03T22:09:38.999Z,54.45
2018-05-03T22:12:07.608Z,54.36
2018-05-03T22:14:35.894Z,53.75
2018-05-03T22:17:04.961Z,54.64
2018-05-03T22:19:34.044Z,54.99
2018-05-03T22:22:02.318Z,54.35
2018-05-03T22:24:30.596Z,55.33
2018-05-03T22:26:58.875Z,55.11
2018-05-03T22:29:27.187Z,54.87
2018-05-03T22:31:56.208Z,55.13
2018-05-03T22:34:24.463Z,55.24
2018-05-03T22:36:52.926Z,55.50
2018-05-03T22:39:22.015Z,54.86
2018-05-03T22:41:51.096Z,54.79
2018-05-03T22:44:19.385Z,54.83
2018-05-03T22:46:47.643Z,54.94
2018-05-03T22:49:15.909Z,54.73
2018-05-03T22:51:44.206Z,55.58
2018-05-03T22:54:13.240Z,55.35
2018-05-03T22:56:41.526Z,55.52
2018-05-03T22:59:09.792Z,55.35
2018-05-03T23:01:38.069Z,55.51
2018-05-03T23:04:06.326Z,55.12
2018-05-03T23:06:34.625Z,55.40
2018-05-03T23:09:02.914Z,55.71
2018-05-03T23:11:31.198Z,56.19
2018-05-03T23:13:59.462Z,55.86
2018-05-03T23:16:27.744Z,56.18
2018-05-03T23:18:56.003Z,55.40
2018-05-03T23:21:24.285Z,54.85
2018-05-03T23:23:52.579Z,54.81
2018-05-03T23:26:20.851Z,55.74
2018-05-03T23:28:49.137Z,55.54
2018-05-03T23:31:18.178Z,55.13
2018-05-03T23:33:46.466Z,55.73
2018-05-03T23:36:14.883Z,55.74
2018-05-03T23:38:43.206Z,56.42
2018-05-03T23:41:11.491Z,56.54
2018-05-03T23:43:39.791Z,56.69
2018-05-03T23:46:08.078Z,56.79
2018-05-03T23:48:36.345Z,57.31
2018-05-03T23:51:04.630Z,56.97
2018-05-03T23:53:32.914Z,57.15
2018-05-03T23:56:01.200Z,57.06
2018-05-03T23:58:29.461Z,57.10
